Time;durP1;ratioP1;P1;durP2;ratioP2;P2;SDS_P1;SDS_P2;PMS_P1;PMS_P2;Temp;Humidity;BMP_temperature;BMP_pressure;BME280_temperature;BME280_humidity;BME280_pressure;Samples;Min_cycle;Max_cycle;Signal;HPM_P1;HPM_P2
2022/12/27 00:01:01;;;;;;;24.42;22.20;;;;;;;;;;10114438;28;20076;-67
2022/12/27 00:05:57;;;;;;;25.73;23.35;;;;;;;;;;10112831;28;20055;-67
2022/12/27 00:10:54;;;;;;;22.95;20.88;;;;;;;;;;10113426;28;20051;-66
2022/12/27 00:15:50;;;;;;;24.20;22.20;;;;;;;;;;10135975;28;20046;-67
2022/12/27 00:20:46;;;;;;;24.52;22.60;;;;;;;;;;10140067;28;20133;-67
2022/12/27 00:25:42;;;;;;;24.50;22.40;;;;;;;;;;10134867;28;20048;-67
2022/12/27 00:30:38;;;;;;;23.35;21.70;;;;;;;;;;10129585;28;20428;-67
2022/12/27 00:35:37;;;;;;;22.88;21.05;;;;;;;;;;10132727;28;20640;-66
2022/12/27 00:40:33;;;;;;;23.92;21.95;;;;;;;;;;10126086;28;20150;-67
2022/12/27 00:45:29;;;;;;;23.45;21.55;;;;;;;;;;10133675;28;20129;-67
2022/12/27 00:50:26;;;;;;;23.80;21.52;;;;;;;;;;10125818;28;20050;-67
2022/12/27 00:55:22;;;;;;;23.27;21.15;;;;;;;;;;10130699;28;20069;-66
2022/12/27 01:00:19;;;;;;;24.13;21.17;;;;;;;;;;10120386;28;20492;-67
2022/12/27 01:05:15;;;;;;;24.17;21.88;;;;;;;;;;10126639;28;20130;-67
2022/12/27 01:10:13;;;;;;;23.33;21.02;;;;;;;;;;10119761;28;20120;-67
2022/12/27 01:15:09;;;;;;;23.02;20.83;;;;;;;;;;10136395;28;20050;-69
2022/12/27 01:20:06;;;;;;;22.90;21.00;;;;;;;;;;10159650;28;20055;-69
2022/12/27 01:25:03;;;;;;;21.73;19.88;;;;;;;;;;10138065;28;20140;-68
2022/12/27 01:29:59;;;;;;;22.45;20.63;;;;;;;;;;10150317;28;20137;-69
2022/12/27 01:34:55;;;;;;;23.02;20.63;;;;;;;;;;10134095;28;20070;-69
2022/12/27 01:39:51;;;;;;;22.58;20.60;;;;;;;;;;10136749;28;20050;-69
2022/12/27 01:44:57;;;;;;;21.58;19.63;;;;;;;;;;10132527;28;20088;-69
2022/12/27 01:49:53;;;;;;;23.20;21.05;;;;;;;;;;10130579;28;20043;-69
2022/12/27 01:54:49;;;;;;;21.55;19.65;;;;;;;;;;10132225;28;20158;-69
2022/12/27 01:59:46;;;;;;;21.50;19.88;;;;;;;;;;10120370;28;20589;-69
2022/12/27 02:04:42;;;;;;;22.50;20.50;;;;;;;;;;10121479;28;20070;-69
2022/12/27 02:09:41;;;;;;;23.30;21.20;;;;;;;;;;10116608;28;20500;-69
2022/12/27 02:14:42;;;;;;;21.88;19.73;;;;;;;;;;10121976;28;20088;-68
2022/12/27 02:19:41;;;;;;;22.58;20.38;;;;;;;;;;10156383;28;20050;-70
2022/12/27 02:24:52;;;;;;;22.70;20.80;;;;;;;;;;10145922;28;20479;-69
2022/12/27 02:29:51;;;;;;;23.75;21.67;;;;;;;;;;10156040;28;20131;-70
2022/12/27 02:34:50;;;;;;;22.73;20.80;;;;;;;;;;10115018;28;20491;-69
2022/12/27 02:39:48;;;;;;;24.60;22.30;;;;;;;;;;10156115;28;20481;-69
2022/12/27 02:53:02;;;;;;;26.33;22.75;;;;;;;;;;10129659;28;20061;-69
2022/12/27 02:57:07;;;;;;;26.45;23.65;;;;;;;;;;10113444;28;20077;-69
2022/12/27 03:06:40;;;;;;;23.42;21.92;;;;;;;;;;10124324;28;20051;-70
2022/12/27 03:17:04;;;;;;;26.63;24.33;;;;;;;;;;10123597;28;20085;-69
2022/12/27 03:27:27;;;;;;;26.13;23.88;;;;;;;;;;10116239;28;20420;-69
2022/12/27 03:43:12;;;;;;;27.30;24.95;;;;;;;;;;10082951;28;20051;-70
2022/12/27 03:48:11;;;;;;;28.50;26.23;;;;;;;;;;10078404;28;20058;-69
2022/12/27 03:53:16;;;;;;;29.08;26.70;;;;;;;;;;10114711;28;20129;-70
2022/12/27 03:58:12;;;;;;;31.02;28.52;;;;;;;;;;10144683;28;20047;-70
2022/12/27 04:03:08;;;;;;;30.45;27.98;;;;;;;;;;10114657;28;20047;-70
2022/12/27 04:39:35;;;;;;;24.42;22.40;;;;;;;;;;10121060;28;20516;-69
2022/12/27 04:55:12;;;;;;;28.77;26.58;;;;;;;;;;10126364;28;20054;-69
2022/12/27 05:05:23;;;;;;;28.77;26.38;;;;;;;;;;10132862;28;20047;-69
2022/12/27 05:15:35;;;;;;;32.85;30.55;;;;;;;;;;10139400;28;20461;-69
2022/12/27 05:20:33;;;;;;;36.75;33.90;;;;;;;;;;10159473;28;20605;-69
2022/12/27 05:25:37;;;;;;;36.88;34.08;;;;;;;;;;10145112;28;20554;-70
2022/12/27 05:30:36;;;;;;;37.95;35.13;;;;;;;;;;10145203;28;20074;-69
2022/12/27 05:35:33;;;;;;;38.55;35.55;;;;;;;;;;10138663;28;20042;-70
2022/12/27 05:40:30;;;;;;;38.17;35.25;;;;;;;;;;10130656;28;20185;-69
2022/12/27 05:45:26;;;;;;;40.58;37.35;;;;;;;;;;10137929;28;20061;-69
2022/12/27 05:50:22;;;;;;;40.97;37.70;;;;;;;;;;10120706;28;20121;-69
2022/12/27 05:55:19;;;;;;;39.92;37.20;;;;;;;;;;10133520;28;20080;-69
2022/12/27 06:00:15;;;;;;;41.03;37.88;;;;;;;;;;10118573;28;20055;-69
2022/12/27 06:05:11;;;;;;;44.17;41.25;;;;;;;;;;10129622;28;20059;-69
2022/12/27 06:10:08;;;;;;;45.00;41.83;;;;;;;;;;10117759;28;20085;-69
2022/12/27 06:15:05;;;;;;;46.45;42.80;;;;;;;;;;10133739;28;20125;-69
2022/12/27 06:20:01;;;;;;;44.65;41.50;;;;;;;;;;10157997;28;20092;-69
2022/12/27 06:24:58;;;;;;;43.47;40.13;;;;;;;;;;10146018;28;20065;-69
2022/12/27 06:29:54;;;;;;;42.60;39.45;;;;;;;;;;10156369;28;20042;-69
2022/12/27 06:34:50;;;;;;;39.15;36.47;;;;;;;;;;10137770;28;20526;-69
2022/12/27 06:39:46;;;;;;;40.22;37.63;;;;;;;;;;10156165;28;20089;-69
2022/12/27 06:44:43;;;;;;;39.65;36.67;;;;;;;;;;10133923;28;20042;-69
2022/12/27 06:49:39;;;;;;;39.78;36.55;;;;;;;;;;10154471;28;20046;-69
2022/12/27 06:54:35;;;;;;;38.60;35.80;;;;;;;;;;10131188;28;20050;-68
2022/12/27 06:59:31;;;;;;;38.42;35.63;;;;;;;;;;10147265;28;20489;-69
2022/12/27 07:04:28;;;;;;;40.45;37.05;;;;;;;;;;10127055;28;20424;-69
2022/12/27 07:09:24;;;;;;;41.58;38.53;;;;;;;;;;10135509;28;20047;-69
2022/12/27 07:14:20;;;;;;;38.38;35.70;;;;;;;;;;10125656;28;20058;-69
2022/12/27 07:19:16;;;;;;;37.17;33.85;;;;;;;;;;10131856;28;20448;-69
2022/12/27 07:24:12;;;;;;;35.28;32.95;;;;;;;;;;10124690;28;20060;-69
2022/12/27 07:29:09;;;;;;;39.22;36.38;;;;;;;;;;10115036;28;20051;-70
2022/12/27 07:34:05;;;;;;;38.50;35.60;;;;;;;;;;10113864;28;20050;-69
2022/12/27 07:39:02;;;;;;;40.83;37.95;;;;;;;;;;10114220;28;20480;-69
2022/12/27 07:43:58;;;;;;;42.70;39.70;;;;;;;;;;10121419;28;20046;-69
2022/12/27 07:48:55;;;;;;;47.30;43.40;;;;;;;;;;10153503;28;20693;-69
2022/12/27 07:53:52;;;;;;;48.80;44.65;;;;;;;;;;10144492;28;20049;-68
2022/12/27 07:58:49;;;;;;;48.63;44.80;;;;;;;;;;10153313;28;20130;-69
2022/12/27 08:03:45;;;;;;;46.35;43.17;;;;;;;;;;10140931;28;20046;-69
2022/12/27 08:08:42;;;;;;;47.70;44.58;;;;;;;;;;10153125;28;20635;-69
2022/12/27 08:13:38;;;;;;;49.30;45.50;;;;;;;;;;10127803;28;20129;-69
2022/12/27 08:18:34;;;;;;;47.70;44.50;;;;;;;;;;10146423;28;20050;-69
2022/12/27 08:23:31;;;;;;;42.78;39.78;;;;;;;;;;10117520;28;20481;-69
2022/12/27 08:28:30;;;;;;;45.92;42.85;;;;;;;;;;10147288;28;20133;-69
2022/12/27 08:33:27;;;;;;;45.90;42.28;;;;;;;;;;10116579;28;20049;-69
2022/12/27 08:38:23;;;;;;;41.38;37.83;;;;;;;;;;10139331;28;20420;-69
2022/12/27 08:43:19;;;;;;;41.03;38.28;;;;;;;;;;10113360;28;20050;-69
2022/12/27 08:48:15;;;;;;;38.10;35.60;;;;;;;;;;10112385;28;20054;-69
2022/12/27 08:53:12;;;;;;;38.00;35.17;;;;;;;;;;10114450;28;20082;-70
2022/12/27 08:58:08;;;;;;;36.95;33.85;;;;;;;;;;10125109;28;20047;-69
2022/12/27 09:03:11;;;;;;;36.65;33.88;;;;;;;;;;10113924;28;20113;-69
2022/12/27 09:08:08;;;;;;;36.35;32.92;;;;;;;;;;10118552;28;20047;-69
2022/12/27 09:13:04;;;;;;;36.67;33.85;;;;;;;;;;10120199;28;20047;-69
2022/12/27 09:18:02;;;;;;;37.38;34.35;;;;;;;;;;10119917;28;20057;-69
2022/12/27 09:22:58;;;;;;;39.88;36.50;;;;;;;;;;10120016;28;20051;-68
2022/12/27 09:27:54;;;;;;;36.72;33.75;;;;;;;;;;10119827;28;20548;-69
2022/12/27 09:32:51;;;;;;;34.25;31.63;;;;;;;;;;10118619;28;20051;-69
2022/12/27 09:37:47;;;;;;;31.40;28.95;;;;;;;;;;10156695;28;20053;-69
2022/12/27 09:42:51;;;;;;;32.03;29.50;;;;;;;;;;10129472;28;20085;-69
2022/12/27 09:48:13;;;;;;;32.33;30.13;;;;;;;;;;10085732;28;20046;-69
2022/12/27 09:53:30;;;;;;;32.13;29.53;;;;;;;;;;10119791;28;20051;-69
2022/12/27 09:58:29;;;;;;;28.23;25.77;;;;;;;;;;10132288;28;20517;-69
2022/12/27 10:03:26;;;;;;;26.38;24.00;;;;;;;;;;10121366;28;20504;-68
2022/12/27 10:08:31;;;;;;;25.13;23.02;;;;;;;;;;10129025;28;20050;-69
2022/12/27 10:13:39;;;;;;;21.42;19.30;;;;;;;;;;10120507;28;20046;-69
2022/12/27 10:18:36;;;;;;;22.27;19.88;;;;;;;;;;10156743;28;20058;-68
2022/12/27 10:23:33;;;;;;;20.92;18.77;;;;;;;;;;10141218;28;20133;-68
2022/12/27 10:28:41;;;;;;;20.88;18.13;;;;;;;;;;10156417;28;20059;-69
2022/12/27 10:33:39;;;;;;;19.45;14.88;;;;;;;;;;10128666;28;20517;-68
2022/12/27 10:38:35;;;;;;;17.85;15.70;;;;;;;;;;10153987;28;20509;-69
2022/12/27 10:43:34;;;;;;;15.95;14.20;;;;;;;;;;10120702;28;20053;-68
2022/12/27 10:48:30;;;;;;;14.77;13.32;;;;;;;;;;10148544;28;20058;-69
2022/12/27 10:53:47;;;;;;;13.93;12.55;;;;;;;;;;10121881;28;20047;-68
2022/12/27 10:58:47;;;;;;;17.48;14.35;;;;;;;;;;10144955;28;20475;-69
2022/12/27 11:04:10;;;;;;;14.55;13.15;;;;;;;;;;10122662;28;20133;-68
2022/12/27 11:09:26;;;;;;;16.20;13.40;;;;;;;;;;10130191;28;20429;-68
2022/12/27 11:14:22;;;;;;;13.95;12.52;;;;;;;;;;10126237;28;20129;-68
2022/12/27 11:19:24;;;;;;;13.27;11.88;;;;;;;;;;10126028;28;20050;-68
2022/12/27 11:24:22;;;;;;;15.40;12.60;;;;;;;;;;10125812;28;20096;-68
2022/12/27 11:29:20;;;;;;;13.52;12.18;;;;;;;;;;10119106;28;20085;-68
2022/12/27 11:34:47;;;;;;;13.43;12.13;;;;;;;;;;10123585;28;20317;-69
2022/12/27 11:39:45;;;;;;;14.63;12.30;;;;;;;;;;10146265;28;20691;-68
2022/12/27 11:44:45;;;;;;;12.52;10.43;;;;;;;;;;10133454;28;20097;-68
2022/12/27 11:49:53;;;;;;;16.13;11.85;;;;;;;;;;10109045;28;20086;-68
2022/12/27 11:54:50;;;;;;;13.02;11.25;;;;;;;;;;10109821;28;20141;-65
2022/12/27 11:59:46;;;;;;;13.88;11.98;;;;;;;;;;10112728;28;20047;-66
2022/12/27 12:04:59;;;;;;;12.23;10.70;;;;;;;;;;10110114;28;20186;-66
2022/12/27 12:10:01;;;;;;;14.75;11.07;;;;;;;;;;10103157;28;20098;-67
2022/12/27 12:15:11;;;;;;;18.40;10.15;;;;;;;;;;10114464;28;20051;-67
2022/12/27 12:20:27;;;;;;;11.70;10.23;;;;;;;;;;10107805;28;20046;-67
2022/12/27 12:25:42;;;;;;;14.45;9.85;;;;;;;;;;10130295;28;20062;-67
2022/12/27 12:30:47;;;;;;;12.20;9.75;;;;;;;;;;10152084;28;20054;-67
2022/12/27 12:35:50;;;;;;;18.05;10.18;;;;;;;;;;10116464;28;20270;-67
2022/12/27 12:40:46;;;;;;;;;;;;;;;;;;10149409;28;20509;-67
2022/12/27 12:45:51;;;;;;;13.02;10.90;;;;;;;;;;10141261;28;19921;-67
2022/12/27 12:50:56;;;;;;;14.98;11.60;;;;;;;;;;10136522;28;20054;-66
2022/12/27 12:55:57;;;;;;;18.58;11.10;;;;;;;;;;10142863;28;20467;-67
2022/12/27 13:01:13;;;;;;;13.98;11.25;;;;;;;;;;10126542;28;20420;-67
2022/12/27 13:06:16;;;;;;;12.25;10.57;;;;;;;;;;10131679;28;20046;-66
2022/12/27 13:11:12;;;;;;;;;;;;;;;;;;10120897;28;20046;-66
2022/12/27 13:16:20;;;;;;;16.15;11.00;;;;;;;;;;10117405;28;19969;-67
2022/12/27 13:21:29;;;;;;;12.85;11.25;;;;;;;;;;10119473;28;20073;-66
2022/12/27 13:26:34;;;;;;;13.63;11.57;;;;;;;;;;10145991;28;20121;-66
2022/12/27 13:31:33;;;;;;;16.92;12.32;;;;;;;;;;10138323;28;20101;-67
2022/12/27 13:36:32;;;;;;;14.73;12.15;;;;;;;;;;10146766;28;20054;-66
2022/12/27 13:41:29;;;;;;;14.48;12.00;;;;;;;;;;10131431;28;20130;-66
2022/12/27 13:46:35;;;;;;;13.50;12.13;;;;;;;;;;10145469;28;20113;-66
2022/12/27 13:51:41;;;;;;;18.55;11.68;;;;;;;;;;10119103;28;20046;-66
2022/12/27 13:56:52;;;;;;;13.93;11.32;;;;;;;;;;10126445;28;20046;-66
2022/12/27 14:01:59;;;;;;;16.92;12.43;;;;;;;;;;10118607;28;20047;-67
2022/12/27 14:07:21;;;;;;;13.63;12.07;;;;;;;;;;10123045;28;20539;-66
2022/12/27 14:12:17;;;;;;;13.60;12.30;;;;;;;;;;10117738;28;20078;-66
2022/12/27 14:17:43;;;;;;;13.88;12.43;;;;;;;;;;10151260;28;20129;-66
2022/12/27 14:22:39;;;;;;;16.67;12.20;;;;;;;;;;10140440;28;20074;-66
2022/12/27 14:27:45;;;;;;;14.93;13.38;;;;;;;;;;10118371;28;20094;-66
2022/12/27 14:33:09;;;;;;;19.85;13.25;;;;;;;;;;10116177;28;20047;-67
2022/12/27 14:38:30;;;;;;;15.57;13.38;;;;;;;;;;10077041;28;20126;-66
2022/12/27 14:43:36;;;;;;;17.08;14.32;;;;;;;;;;10113201;28;20129;-66
2022/12/27 14:48:44;;;;;;;17.55;14.15;;;;;;;;;;10155824;28;20046;-67
2022/12/27 14:53:43;;;;;;;20.73;15.60;;;;;;;;;;10118511;28;20050;-66
2022/12/27 14:58:55;;;;;;;18.70;14.98;;;;;;;;;;10114955;28;20137;-66
2022/12/27 15:03:57;;;;;;;17.40;15.57;;;;;;;;;;10121896;28;20267;-66
2022/12/27 15:08:59;;;;;;;21.40;15.80;;;;;;;;;;10142906;28;20069;-67
2022/12/27 15:14:13;;;;;;;18.60;15.50;;;;;;;;;;10114971;28;20053;-66
2022/12/27 15:19:10;;;;;;;22.00;16.55;;;;;;;;;;10112771;28;20125;-66
2022/12/27 15:24:24;;;;;;;18.02;15.95;;;;;;;;;;10123388;28;20125;-66
2022/12/27 15:29:39;;;;;;;21.00;16.52;;;;;;;;;;10121081;28;20078;-66
2022/12/27 15:34:41;;;;;;;22.92;20.83;;;;;;;;;;10119754;28;20134;-66
2022/12/27 15:39:37;;;;;;;22.70;20.40;;;;;;;;;;10114786;28;20057;-66
2022/12/27 15:44:54;;;;;;;23.33;21.08;;;;;;;;;;10115925;28;20047;-66
2022/12/27 15:49:53;;;;;;;22.00;19.95;;;;;;;;;;10114165;28;20074;-67
2022/12/27 15:55:01;;;;;;;23.95;21.10;;;;;;;;;;10104164;28;20130;-66
2022/12/27 16:00:17;;;;;;;23.50;21.35;;;;;;;;;;10075120;28;20130;-67
2022/12/27 16:05:13;;;;;;;21.80;19.77;;;;;;;;;;10113041;28;20054;-67
2022/12/27 16:10:26;;;;;;;22.80;20.63;;;;;;;;;;10148324;28;20129;-67
2022/12/27 16:15:39;;;;;;;20.77;18.55;;;;;;;;;;10133432;28;20126;-67
2022/12/27 16:20:36;;;;;;;;;;;;;;;;;;10154595;28;20122;-67
2022/12/27 16:25:41;;;;;;;21.85;19.67;;;;;;;;;;10146774;28;20004;-67
2022/12/27 16:30:40;;;;;;;22.48;20.13;;;;;;;;;;10136235;28;20057;-67
2022/12/27 16:35:36;;;;;;;24.20;21.38;;;;;;;;;;10126931;28;20532;-67
2022/12/27 16:40:36;;;;;;;22.05;20.00;;;;;;;;;;10125919;28;20047;-67
2022/12/27 16:45:42;;;;;;;23.67;21.42;;;;;;;;;;10136921;28;20101;-67
2022/12/27 16:50:38;;;;;;;23.75;21.80;;;;;;;;;;10125699;28;20061;-67
2022/12/27 16:55:52;;;;;;;24.83;22.58;;;;;;;;;;10124920;28;20058;-65
2022/12/27 17:00:49;;;;;;;27.25;24.27;;;;;;;;;;10126848;28;20053;-65
2022/12/27 17:05:50;;;;;;;29.23;26.10;;;;;;;;;;10126707;28;20543;-66
2022/12/27 17:11:18;;;;;;;28.55;25.30;;;;;;;;;;10125035;28;20054;-66
2022/12/27 17:16:20;;;;;;;28.60;25.92;;;;;;;;;;10126154;28;20051;-66
2022/12/27 17:21:31;;;;;;;30.15;26.17;;;;;;;;;;10125633;28;20073;-66
2022/12/27 17:26:41;;;;;;;27.13;24.83;;;;;;;;;;10152217;28;20042;-66
2022/12/27 17:31:54;;;;;;;27.23;25.02;;;;;;;;;;10154308;28;20082;-66
2022/12/27 17:36:56;;;;;;;28.25;26.13;;;;;;;;;;10121345;28;20102;-65
2022/12/27 17:47:46;;;;;;;29.42;26.88;;;;;;;;;;10154189;28;20074;-65
2022/12/27 17:58:15;;;;;;;31.02;28.45;;;;;;;;;;10117429;28;20051;-66
2022/12/27 18:03:12;;;;;;;30.05;27.42;;;;;;;;;;10119847;28;20086;-66
2022/12/27 18:08:24;;;;;;;30.55;27.85;;;;;;;;;;10138346;28;20056;-66
2022/12/27 18:13:23;;;;;;;29.98;26.98;;;;;;;;;;10119836;28;20050;-66
2022/12/27 18:18:26;;;;;;;28.27;25.90;;;;;;;;;;10132334;28;20054;-66
2022/12/27 18:23:23;;;;;;;30.63;27.55;;;;;;;;;;10116501;28;20046;-66
2022/12/27 18:28:19;;;;;;;30.15;27.38;;;;;;;;;;10116874;28;20129;-66
2022/12/27 18:33:16;;;;;;;29.10;25.98;;;;;;;;;;10116970;28;20070;-65
2022/12/27 18:38:16;;;;;;;29.35;26.48;;;;;;;;;;10156090;28;20516;-66
2022/12/27 18:43:14;;;;;;;27.33;24.80;;;;;;;;;;10129827;28;20046;-66
2022/12/27 18:48:13;;;;;;;29.67;25.70;;;;;;;;;;10155788;28;20082;-65
2022/12/27 18:53:21;;;;;;;29.90;27.15;;;;;;;;;;10123900;28;20122;-65
2022/12/27 18:58:17;;;;;;;29.23;26.55;;;;;;;;;;10149784;28;20035;-66
2022/12/27 19:03:17;;;;;;;30.95;27.70;;;;;;;;;;10118118;28;20134;-66
2022/12/27 19:08:15;;;;;;;28.25;24.98;;;;;;;;;;10139186;28;20070;-65
2022/12/27 19:13:20;;;;;;;25.83;23.58;;;;;;;;;;10116669;28;20071;-65
2022/12/27 19:18:23;;;;;;;27.25;24.77;;;;;;;;;;10122603;28;20054;-65
2022/12/27 19:23:24;;;;;;;27.73;24.75;;;;;;;;;;10116525;28;20078;-66
2022/12/27 19:28:24;;;;;;;28.77;25.75;;;;;;;;;;10075558;28;20537;-66
2022/12/27 19:33:23;;;;;;;29.63;26.50;;;;;;;;;;10082661;28;20051;-66
2022/12/27 19:38:23;;;;;;;28.92;26.35;;;;;;;;;;10153818;28;20053;-65
2022/12/27 19:43:19;;;;;;;31.30;28.35;;;;;;;;;;10149926;28;20472;-65
2022/12/27 19:48:16;;;;;;;30.45;28.02;;;;;;;;;;10153400;28;20133;-65
2022/12/27 19:53:16;;;;;;;29.75;27.33;;;;;;;;;;10133974;28;20047;-65
2022/12/27 19:58:19;;;;;;;31.52;28.83;;;;;;;;;;10153387;28;20551;-65
2022/12/27 20:03:15;;;;;;;29.70;26.88;;;;;;;;;;10122043;28;20054;-66
2022/12/27 20:08:25;;;;;;;32.10;29.58;;;;;;;;;;10145951;28;20057;-65
2022/12/27 20:13:22;;;;;;;33.05;30.27;;;;;;;;;;10116560;28;20085;-65
2022/12/27 20:18:19;;;;;;;36.90;33.13;;;;;;;;;;10131205;28;20126;-65
2022/12/27 20:23:16;;;;;;;35.55;32.47;;;;;;;;;;10115845;28;20053;-65
2022/12/27 20:28:12;;;;;;;37.72;34.17;;;;;;;;;;10117559;28;20082;-65
2022/12/27 20:33:09;;;;;;;34.88;31.83;;;;;;;;;;10113126;28;20129;-66
2022/12/27 20:38:06;;;;;;;37.58;34.40;;;;;;;;;;10112037;28;20412;-65
2022/12/27 20:43:02;;;;;;;37.55;34.35;;;;;;;;;;10113299;28;20055;-66
2022/12/27 20:47:59;;;;;;;37.63;34.42;;;;;;;;;;10107789;28;20718;-66
2022/12/27 20:52:55;;;;;;;38.63;35.33;;;;;;;;;;10112262;28;20082;-66
2022/12/27 20:57:51;;;;;;;39.95;36.58;;;;;;;;;;10113054;28;20046;-65
2022/12/27 21:02:47;;;;;;;37.33;34.42;;;;;;;;;;10113508;28;20049;-65
2022/12/27 21:07:44;;;;;;;39.35;35.55;;;;;;;;;;10157315;28;20081;-65
2022/12/27 21:12:41;;;;;;;39.80;36.45;;;;;;;;;;10126488;28;20039;-66
2022/12/27 21:17:37;;;;;;;39.50;36.13;;;;;;;;;;10156428;28;20077;-66
2022/12/27 21:22:33;;;;;;;42.13;38.20;;;;;;;;;;10122206;28;20133;-66
2022/12/27 21:27:29;;;;;;;40.63;37.28;;;;;;;;;;10124505;28;20054;-67
2022/12/27 21:32:26;;;;;;;41.78;37.75;;;;;;;;;;10119528;28;20129;-68
2022/12/27 21:37:22;;;;;;;41.53;37.67;;;;;;;;;;10137960;28;20338;-66
2022/12/27 21:42:19;;;;;;;39.13;35.90;;;;;;;;;;10119560;28;20130;-66
2022/12/27 21:47:15;;;;;;;37.55;34.05;;;;;;;;;;10136429;28;20078;-66
2022/12/27 21:52:11;;;;;;;39.25;35.65;;;;;;;;;;10118410;28;20414;-66
2022/12/27 21:57:07;;;;;;;39.42;35.50;;;;;;;;;;10130495;28;20412;-65
2022/12/27 22:02:03;;;;;;;38.22;34.65;;;;;;;;;;10118068;28;20057;-65
2022/12/27 22:07:00;;;;;;;38.65;35.00;;;;;;;;;;10120308;28;20046;-65
2022/12/27 22:11:56;;;;;;;39.83;35.92;;;;;;;;;;10117457;28;20050;-65
2022/12/27 22:16:52;;;;;;;38.00;34.70;;;;;;;;;;10148158;28;20536;-65
2022/12/27 22:21:49;;;;;;;38.63;35.53;;;;;;;;;;10150127;28;20501;-65
2022/12/27 22:26:47;;;;;;;35.88;32.97;;;;;;;;;;10147087;28;20062;-65
2022/12/27 22:31:43;;;;;;;36.95;33.78;;;;;;;;;;10147918;28;20126;-66
2022/12/27 22:36:39;;;;;;;36.30;32.58;;;;;;;;;;10145950;28;20038;-66
2022/12/27 22:41:36;;;;;;;37.40;34.15;;;;;;;;;;10146623;28;20078;-65
2022/12/27 22:46:32;;;;;;;36.83;33.53;;;;;;;;;;10144793;28;20472;-65
2022/12/27 22:51:48;;;;;;;34.55;31.40;;;;;;;;;;10134649;28;20039;-66
2022/12/27 22:56:45;;;;;;;34.20;31.15;;;;;;;;;;10146036;28;20049;-66
2022/12/27 23:01:42;;;;;;;32.38;29.63;;;;;;;;;;10133048;28;20053;-66
2022/12/27 23:06:39;;;;;;;32.92;30.13;;;;;;;;;;10143492;28;20461;-66
2022/12/27 23:11:36;;;;;;;32.03;29.20;;;;;;;;;;10130501;28;20476;-66
2022/12/27 23:16:40;;;;;;;30.42;27.52;;;;;;;;;;10117900;28;20135;-66
2022/12/27 23:21:36;;;;;;;30.42;28.05;;;;;;;;;;10113945;28;20046;-66
2022/12/27 23:26:32;;;;;;;29.00;26.73;;;;;;;;;;10130617;28;20051;-66
2022/12/27 23:31:28;;;;;;;29.35;26.73;;;;;;;;;;10114280;28;20039;-66
2022/12/27 23:36:25;;;;;;;28.60;26.02;;;;;;;;;;10116388;28;20038;-66
2022/12/27 23:41:22;;;;;;;27.38;24.77;;;;;;;;;;10114125;28;20127;-66
2022/12/27 23:46:23;;;;;;;24.50;22.40;;;;;;;;;;10140592;28;20423;-66
2022/12/27 23:51:20;;;;;;;24.30;22.05;;;;;;;;;;10139323;28;20053;-66
2022/12/27 23:56:18;;;;;;;24.90;23.00;;;;;;;;;;10139519;28;20046;-66
